createdAt,value
2022-09-05T00:02:48.932Z,53.51
2022-09-05T00:05:35.076Z,53.51
2022-09-05T00:08:17.043Z,53.97
2022-09-05T00:11:43.160Z,54.02
2022-09-05T00:14:11.167Z,54.12
2022-09-05T00:16:53.866Z,54.25
2022-09-05T00:24:22.790Z,53.96
2022-09-05T00:24:35.279Z,54.57
2022-09-05T00:26:12.866Z,54.09
2022-09-05T00:28:57.191Z,53.99
2022-09-05T00:31:57.752Z,54.01
2022-09-05T00:35:02.479Z,54.14
2022-09-05T00:37:38.910Z,53.91
2022-09-05T00:40:19.709Z,54.10
2022-09-05T00:42:57.058Z,53.59
2022-09-05T00:45:32.623Z,53.56
2022-09-05T00:48:08.169Z,54.36
2022-09-05T00:50:46.084Z,53.86
2022-09-05T00:53:23.365Z,53.10
2022-09-05T00:56:06.924Z,53.70
2022-09-05T00:58:51.991Z,53.43
2022-09-05T01:01:37.250Z,53.72
2022-09-05T01:04:27.070Z,53.53
2022-09-05T01:07:13.728Z,54.18
2022-09-05T01:10:04.277Z,53.96
2022-09-05T01:12:53.019Z,54.33
2022-09-05T01:15:32.756Z,54.46
2022-09-05T01:18:14.505Z,55.21
2022-09-05T01:20:59.434Z,55.38
2022-09-05T01:23:53.819Z,55.32
2022-09-05T01:27:09.861Z,55.76
2022-09-05T01:29:56.531Z,55.72
2022-09-05T01:32:50.612Z,55.54
2022-09-05T01:35:28.031Z,55.54
2022-09-05T01:38:10.189Z,55.68
2022-09-05T01:40:53.627Z,55.81
2022-09-05T01:44:01.240Z,56.47
2022-09-05T01:46:52.582Z,56.80
2022-09-05T01:49:41.622Z,57.21
2022-09-05T01:53:00.016Z,57.43
2022-09-05T01:56:03.969Z,56.81
2022-09-05T01:59:05.630Z,56.75
2022-09-05T02:01:50.755Z,57.60
2022-09-05T02:04:28.708Z,57.79
2022-09-05T02:07:15.280Z,57.57
2022-09-05T02:10:19.830Z,58.99
2022-09-05T02:13:03.516Z,58.48
2022-09-05T02:15:53.835Z,58.96
2022-09-05T02:18:46.808Z,59.27
2022-09-05T02:21:55.374Z,58.97
2022-09-05T02:24:32.963Z,58.95
2022-09-05T02:28:02.173Z,59.21
2022-09-05T02:30:16.398Z,59.69
2022-09-05T02:33:21.955Z,59.52
2022-09-05T02:36:00.013Z,59.87
2022-09-05T02:41:40.475Z,59.79
2022-09-05T02:45:06.151Z,60.06
2022-09-05T02:45:07.127Z,60.13
2022-09-05T02:47:54.666Z,60.35
2022-09-05T02:57:23.281Z,60.27
2022-09-05T02:57:33.358Z,60.77
2022-09-05T02:58:05.288Z,60.38
2022-09-05T03:00:12.536Z,60.47
2022-09-05T03:03:06.759Z,61.31
2022-09-05T03:06:12.424Z,61.12
2022-09-05T03:09:09.799Z,61.45
2022-09-05T03:12:34.932Z,60.98
2022-09-05T03:15:18.866Z,61.02
2022-09-05T03:18:29.617Z,61.77
2022-09-05T03:21:47.880Z,61.52
2022-09-05T03:24:31.219Z,61.67
2022-09-05T03:27:31.434Z,62.16
2022-09-05T03:30:13.133Z,62.11
2022-09-05T03:33:01.835Z,62.70
2022-09-05T03:35:34.266Z,63.25
2022-09-05T03:38:12.906Z,63.25
2022-09-05T03:41:03.668Z,63.28
2022-09-05T03:43:36.717Z,63.20
2022-09-05T03:46:25.166Z,63.12
2022-09-05T03:49:58.051Z,63.20
2022-09-05T03:57:16.515Z,63.23
2022-09-05T03:57:28.080Z,63.24
2022-09-05T03:58:57.574Z,63.02
2022-09-05T04:03:55.374Z,63.16
2022-09-05T04:08:09.120Z,63.69
2022-09-05T04:08:31.483Z,64.06
2022-09-05T04:10:40.833Z,64.10
2022-09-05T04:13:22.672Z,64.23
2022-09-05T04:16:04.407Z,64.73
2022-09-05T04:18:39.194Z,64.82
2022-09-05T04:21:20.836Z,65.12
2022-09-05T04:24:02.903Z,65.35
2022-09-05T04:26:41.616Z,64.84
2022-09-05T04:29:26.129Z,64.62
2022-09-05T04:32:18.626Z,64.65
2022-09-05T04:35:32.861Z,64.12
2022-09-05T04:38:12.349Z,64.41
2022-09-05T04:41:13.179Z,63.94
2022-09-05T04:43:47.998Z,64.18
2022-09-05T04:46:30.653Z,64.06
2022-09-05T04:49:30.247Z,63.47
2022-09-05T04:52:40.874Z,63.72
2022-09-05T04:55:18.778Z,63.33
2022-09-05T04:57:56.739Z,64.07
2022-09-05T05:06:05.123Z,64.17
2022-09-05T05:06:09.428Z,63.15
2022-09-05T05:06:38.061Z,62.65
2022-09-05T05:08:55.231Z,62.88
2022-09-05T05:16:39.784Z,62.68
2022-09-05T05:18:00.928Z,62.33
2022-09-05T05:18:12.354Z,63.25
2022-09-05T05:20:42.969Z,62.14
2022-09-05T05:23:31.610Z,62.66
2022-09-05T05:26:01.962Z,61.94
2022-09-05T05:28:47.006Z,62.37
2022-09-05T05:31:18.230Z,61.62
2022-09-05T05:33:48.813Z,61.34
2022-09-05T05:36:26.079Z,60.61
2022-09-05T05:39:04.032Z,60.96
2022-09-05T05:41:46.252Z,60.89
2022-09-05T05:44:18.812Z,60.55
2022-09-05T05:46:55.039Z,60.22
2022-09-05T05:49:41.127Z,60.15
2022-09-05T05:52:16.494Z,59.45
2022-09-05T05:55:42.278Z,59.37
2022-09-05T05:58:19.060Z,58.98
2022-09-05T06:00:54.865Z,59.04
2022-09-05T06:03:39.956Z,59.18
2022-09-05T06:06:25.047Z,58.62
2022-09-05T06:13:00.897Z,58.34
2022-09-05T06:14:57.886Z,58.02
2022-09-05T06:15:23.282Z,57.37
2022-09-05T06:18:02.808Z,57.41
2022-09-05T06:22:05.042Z,56.99
2022-09-05T06:23:57.198Z,56.96
2022-09-05T06:26:45.835Z,56.55
2022-09-05T06:29:47.051Z,56.95
2022-09-05T06:32:33.635Z,56.81
2022-09-05T06:35:29.552Z,56.23
2022-09-05T06:37:56.259Z,56.50
2022-09-05T06:40:34.902Z,56.55
2022-09-05T06:43:13.411Z,56.00
2022-09-05T06:45:49.272Z,56.02
2022-09-05T06:49:32.414Z,55.80
2022-09-05T06:52:44.847Z,54.79
2022-09-05T06:55:35.345Z,54.26
2022-09-05T06:58:22.523Z,53.96
2022-09-05T07:00:52.113Z,53.43
2022-09-05T07:03:43.039Z,53.43
2022-09-05T07:07:00.940Z,53.26
2022-09-05T07:09:43.162Z,53.05
2022-09-05T07:12:30.163Z,52.47
2022-09-05T07:15:08.663Z,52.01
2022-09-05T07:18:09.111Z,52.06
2022-09-05T07:21:15.656Z,51.06
2022-09-05T07:24:09.290Z,51.05
2022-09-05T07:26:52.014Z,48.91
2022-09-05T07:29:27.866Z,48.55
2022-09-05T07:31:56.352Z,48.51
2022-09-05T07:34:35.248Z,48.21
2022-09-05T07:37:15.285Z,48.10
2022-09-05T07:39:56.231Z,49.02
2022-09-05T07:42:25.538Z,48.55
2022-09-05T07:44:57.078Z,49.05
2022-09-05T07:47:29.464Z,49.23
2022-09-05T07:50:40.197Z,49.17
2022-09-05T07:56:59.015Z,48.57
2022-09-05T07:57:01.479Z,48.40
2022-09-05T07:58:41.371Z,48.93
2022-09-05T08:01:13.710Z,48.77
2022-09-05T08:03:43.313Z,49.02
2022-09-05T08:06:55.445Z,48.93
2022-09-05T08:10:07.014Z,47.82
2022-09-05T08:12:15.315Z,46.60
2022-09-05T08:14:46.307Z,46.20
2022-09-05T08:17:29.861Z,45.45
2022-09-05T08:20:12.192Z,44.45
2022-09-05T08:22:52.446Z,43.77
2022-09-05T08:25:56.576Z,43.60
2022-09-05T08:28:38.950Z,42.10
2022-09-05T08:31:18.254Z,40.25
2022-09-05T08:33:48.687Z,38.51
2022-09-05T08:36:27.508Z,38.87
2022-09-05T08:38:55.477Z,37.93
2022-09-05T08:41:49.453Z,38.43
2022-09-05T08:46:43.472Z,39.07
2022-09-05T08:47:45.425Z,39.71
2022-09-05T08:50:26.967Z,39.42
2022-09-05T08:53:46.272Z,40.42
2022-09-05T08:56:31.708Z,40.18
2022-09-05T08:59:27.855Z,40.58
2022-09-05T09:02:47.868Z,40.42
2022-09-05T09:05:14.544Z,40.72
2022-09-05T09:08:22.231Z,40.70
2022-09-05T09:10:57.405Z,40.09
2022-09-05T09:13:36.395Z,40.19
2022-09-05T09:16:07.515Z,40.24
2022-09-05T09:18:57.864Z,41.04
2022-09-05T09:21:46.786Z,40.17
2022-09-05T09:24:19.439Z,39.60
2022-09-05T09:27:13.785Z,38.14
2022-09-05T09:29:46.514Z,37.31
2022-09-05T09:32:17.658Z,37.31
2022-09-05T09:34:51.716Z,37.57
2022-09-05T09:37:50.076Z,36.93
2022-09-05T09:40:52.248Z,37.79
2022-09-05T09:43:37.788Z,37.18
2022-09-05T09:46:18.855Z,38.42
2022-09-05T09:49:00.464Z,39.12
2022-09-05T09:51:35.908Z,38.89
2022-09-05T09:54:40.244Z,38.84
2022-09-05T09:57:48.824Z,38.35
2022-09-05T10:00:21.369Z,38.05
2022-09-05T10:07:35.476Z,37.82
2022-09-05T10:10:47.755Z,37.64
2022-09-05T10:10:53.992Z,37.58
2022-09-05T10:12:14.384Z,37.91
2022-09-05T10:15:11.306Z,38.36
2022-09-05T10:17:59.445Z,37.45
2022-09-05T10:20:50.934Z,37.87
2022-09-05T10:23:54.368Z,37.95
2022-09-05T10:26:48.615Z,38.64
2022-09-05T10:30:09.431Z,38.75
2022-09-05T10:35:17.539Z,39.36
2022-09-05T10:35:59.262Z,39.44
2022-09-05T10:38:40.343Z,39.83
2022-09-05T10:41:22.328Z,39.59
2022-09-05T10:44:02.197Z,39.40
2022-09-05T10:47:06.273Z,39.28
2022-09-05T10:49:42.840Z,38.70
2022-09-05T10:52:19.025Z,38.37
2022-09-05T10:55:18.440Z,38.97
2022-09-05T11:01:14.797Z,39.73
2022-09-05T11:02:30.288Z,39.74
2022-09-05T11:04:46.666Z,39.20
2022-09-05T11:07:47.546Z,38.87
2022-09-05T11:10:29.672Z,37.99
2022-09-05T11:13:10.687Z,37.22
2022-09-05T11:15:57.268Z,36.95
2022-09-05T11:18:57.810Z,37.48
2022-09-05T11:21:49.563Z,38.07
2022-09-05T11:24:58.826Z,37.61
2022-09-05T11:27:43.550Z,37.59
2022-09-05T11:30:39.301Z,37.62
2022-09-05T11:39:45.855Z,36.93
2022-09-05T11:39:52.701Z,36.61
2022-09-05T11:40:26.422Z,36.85
2022-09-05T11:42:55.470Z,36.16
2022-09-05T11:45:43.369Z,35.64
2022-09-05T11:48:33.015Z,35.87
2022-09-05T11:51:33.440Z,36.32
2022-09-05T11:54:27.303Z,37.54
2022-09-05T11:57:32.012Z,38.40
2022-09-05T12:00:32.919Z,39.07
2022-09-05T12:03:59.467Z,38.88
2022-09-05T12:06:38.610Z,37.94
2022-09-05T12:09:20.225Z,37.19
2022-09-05T12:12:39.378Z,37.61
2022-09-05T12:15:34.973Z,37.62
2022-09-05T12:18:19.478Z,37.32
2022-09-05T12:21:17.476Z,37.49
2022-09-05T12:25:16.957Z,37.46
2022-09-05T12:27:41.241Z,37.04
2022-09-05T12:29:59.943Z,36.70
2022-09-05T12:34:53.937Z,35.44
2022-09-05T12:36:05.483Z,34.18
2022-09-05T12:40:27.586Z,33.17
2022-09-05T12:42:14.907Z,32.99
2022-09-05T12:45:09.881Z,32.44
2022-09-05T12:47:52.152Z,32.20
2022-09-05T12:50:23.131Z,31.85
2022-09-05T12:52:52.545Z,31.40
2022-09-05T12:56:32.283Z,32.65
2022-09-05T13:02:55.843Z,32.66
2022-09-05T13:03:04.682Z,32.21
2022-09-05T13:05:01.954Z,32.19
2022-09-05T13:07:50.955Z,32.05
2022-09-05T13:14:46.898Z,32.95
2022-09-05T13:14:49.000Z,32.58
2022-09-05T13:16:25.995Z,34.38
2022-09-05T13:19:02.273Z,33.82
2022-09-05T13:21:30.973Z,33.81
2022-09-05T13:24:18.883Z,34.07
2022-09-05T13:26:57.625Z,34.63
2022-09-05T13:29:39.894Z,34.58
2022-09-05T13:37:59.417Z,34.26
2022-09-05T13:38:10.556Z,34.22
2022-09-05T13:41:04.357Z,34.10
2022-09-05T13:43:39.239Z,34.03
2022-09-05T13:46:11.007Z,33.29
2022-09-05T13:51:51.070Z,33.26
2022-09-05T13:54:36.632Z,32.89
2022-09-05T13:57:16.359Z,33.47
2022-09-05T14:00:27.048Z,33.47
2022-09-05T14:03:37.439Z,33.60
2022-09-05T14:06:37.817Z,33.33
2022-09-05T14:09:36.704Z,32.99
2022-09-05T14:13:00.832Z,32.19
2022-09-05T14:15:55.231Z,31.23
2022-09-05T14:19:04.393Z,32.21
2022-09-05T14:21:36.836Z,32.49
2022-09-05T14:24:13.313Z,33.16
2022-09-05T14:26:52.876Z,33.51
2022-09-05T14:29:25.139Z,34.53
2022-09-05T14:37:35.482Z,34.46
2022-09-05T14:37:53.549Z,35.14
2022-09-05T14:38:14.264Z,35.92
2022-09-05T14:41:03.136Z,35.82
2022-09-05T14:44:00.496Z,36.06
2022-09-05T14:46:56.468Z,36.01
2022-09-05T14:49:23.017Z,35.93
2022-09-05T14:51:52.319Z,36.06
2022-09-05T15:02:39.689Z,36.96
2022-09-05T15:02:51.666Z,37.44
2022-09-05T15:03:05.072Z,38.46
2022-09-05T15:05:45.349Z,38.63
2022-09-05T15:11:23.861Z,39.09
2022-09-05T15:12:18.373Z,39.34
2022-09-05T15:14:03.431Z,39.83
2022-09-05T15:16:32.803Z,39.37
2022-09-05T15:18:59.555Z,39.42
2022-09-05T15:21:38.046Z,39.96
2022-09-05T15:24:29.589Z,40.62
2022-09-05T15:27:02.021Z,40.15
2022-09-05T15:29:31.724Z,40.35
2022-09-05T15:32:21.751Z,40.85
2022-09-05T15:34:54.451Z,41.09
2022-09-05T15:37:29.173Z,40.63
2022-09-05T15:40:22.558Z,40.56
2022-09-05T15:42:50.924Z,40.81
2022-09-05T15:45:27.937Z,40.84
2022-09-05T15:48:21.079Z,40.61
2022-09-05T15:50:52.193Z,40.96
2022-09-05T15:53:34.193Z,40.77
2022-09-05T15:56:15.814Z,41.67
2022-09-05T15:58:53.049Z,41.85
2022-09-05T16:01:52.320Z,42.51
2022-09-05T16:07:28.039Z,42.67
2022-09-05T16:10:37.633Z,42.66
2022-09-05T16:10:45.523Z,43.30
2022-09-05T16:13:17.462Z,43.20
2022-09-05T16:20:18.718Z,43.80
2022-09-05T16:23:14.769Z,44.10
2022-09-05T16:23:26.205Z,44.30
2022-09-05T16:24:59.908Z,44.42
2022-09-05T16:27:44.485Z,44.03
2022-09-05T16:30:19.062Z,44.27
2022-09-05T16:32:46.534Z,44.67
2022-09-05T16:35:18.865Z,44.74
2022-09-05T16:38:14.075Z,44.80
2022-09-05T16:40:53.412Z,45.53
2022-09-05T16:43:20.012Z,45.10
2022-09-05T16:45:54.447Z,45.32
2022-09-05T16:48:35.446Z,45.86
2022-09-05T16:51:35.725Z,45.61
2022-09-05T16:54:34.815Z,46.15
2022-09-05T16:57:05.934Z,46.76
2022-09-05T16:59:35.565Z,46.67
2022-09-05T17:02:11.352Z,46.75
2022-09-05T17:05:07.155Z,46.67
2022-09-05T17:08:15.043Z,46.58
2022-09-05T17:10:57.290Z,46.61
2022-09-05T17:13:52.894Z,47.05
2022-09-05T17:16:29.569Z,46.90
2022-09-05T17:18:59.523Z,47.23
2022-09-05T17:24:12.453Z,47.13
2022-09-05T17:29:19.272Z,47.51
2022-09-05T17:29:33.947Z,47.55
2022-09-05T17:32:53.574Z,48.21
2022-09-05T17:35:32.838Z,48.04
2022-09-05T17:38:36.911Z,48.49
2022-09-05T17:41:24.725Z,48.32
2022-09-05T17:44:05.727Z,48.62
2022-09-05T17:46:41.493Z,49.39
2022-09-05T17:49:19.311Z,48.95
2022-09-05T17:51:52.738Z,49.49
2022-09-05T17:54:28.531Z,49.83
2022-09-05T17:56:55.293Z,49.84
2022-09-05T17:59:23.259Z,49.81
2022-09-05T18:02:02.329Z,50.17
2022-09-05T18:04:47.345Z,50.06
2022-09-05T18:07:23.009Z,50.30
2022-09-05T18:10:27.607Z,50.22
2022-09-05T18:13:13.054Z,50.48
2022-09-05T18:15:41.303Z,50.59
2022-09-05T18:19:28.609Z,50.64
2022-09-05T18:24:12.810Z,50.52
2022-09-05T18:26:48.809Z,50.89
2022-09-05T18:29:57.641Z,51.21
2022-09-05T18:32:40.844Z,50.94
2022-09-05T18:35:28.005Z,51.12
2022-09-05T18:38:04.210Z,51.13
2022-09-05T18:40:45.780Z,51.46
2022-09-05T18:43:37.890Z,51.30
2022-09-05T18:46:18.809Z,51.27
2022-09-05T18:50:21.866Z,51.21
2022-09-05T18:52:24.131Z,51.02
2022-09-05T18:56:11.204Z,51.17
2022-09-05T18:58:05.255Z,51.06
2022-09-05T19:00:44.473Z,51.12
2022-09-05T19:03:28.734Z,51.52
2022-09-05T19:06:35.966Z,51.28
2022-09-05T19:09:14.020Z,51.15
2022-09-05T19:11:57.666Z,51.03
2022-09-05T19:14:49.285Z,50.92
2022-09-05T19:17:31.787Z,50.89
2022-09-05T19:20:25.348Z,51.64
2022-09-05T19:23:10.625Z,51.00
2022-09-05T19:25:46.082Z,50.82
2022-09-05T19:36:47.220Z,50.89
2022-09-05T19:36:54.137Z,51.13
2022-09-05T19:36:58.355Z,50.84
2022-09-05T19:37:26.298Z,51.35
2022-09-05T19:47:27.073Z,51.72
2022-09-05T19:47:44.059Z,52.11
2022-09-05T19:47:45.333Z,52.18
2022-09-05T19:48:27.947Z,52.13
2022-09-05T19:50:57.172Z,52.35
2022-09-05T19:53:24.853Z,52.38
2022-09-05T19:55:52.346Z,52.57
2022-09-05T19:58:22.056Z,52.97
2022-09-05T20:01:04.208Z,53.15
2022-09-05T20:03:40.143Z,52.77
2022-09-05T20:06:30.018Z,53.05
2022-09-05T20:09:19.583Z,53.26
2022-09-05T20:11:52.568Z,53.48
2022-09-05T20:14:22.927Z,53.59
2022-09-05T20:16:51.502Z,54.04
2022-09-05T20:19:28.667Z,54.12
2022-09-05T20:21:58.808Z,54.38
2022-09-05T20:24:25.807Z,54.59
2022-09-05T20:26:52.515Z,54.41
2022-09-05T20:29:54.751Z,54.64
2022-09-05T20:32:38.498Z,54.57
2022-09-05T20:42:14.071Z,54.80
2022-09-05T20:43:17.029Z,54.61
2022-09-05T20:43:35.636Z,54.83
2022-09-05T20:44:22.374Z,55.32
2022-09-05T20:52:57.186Z,55.29
2022-09-05T20:54:13.742Z,55.35
2022-09-05T20:54:18.671Z,55.49
2022-09-05T20:55:41.405Z,55.42
2022-09-05T20:58:13.932Z,56.03
2022-09-05T21:01:21.819Z,56.11
2022-09-05T21:03:39.910Z,56.75
2022-09-05T21:06:26.588Z,56.40
2022-09-05T21:08:55.849Z,56.36
2022-09-05T21:11:30.821Z,56.51
2022-09-05T21:14:01.862Z,56.88
2022-09-05T21:16:31.264Z,56.49
2022-09-05T21:18:58.151Z,56.38
2022-09-05T21:21:30.767Z,56.73
2022-09-05T21:24:16.701Z,56.90
2022-09-05T21:26:48.799Z,56.97
2022-09-05T21:29:24.491Z,56.59
2022-09-05T21:31:57.515Z,57.21
2022-09-05T21:34:44.782Z,56.63
2022-09-05T21:37:17.684Z,57.10
2022-09-05T21:39:59.123Z,57.02
2022-09-05T21:46:07.298Z,56.80
2022-09-05T21:47:47.461Z,56.34
2022-09-05T21:48:06.011Z,56.63
2022-09-05T21:50:54.647Z,56.24
2022-09-05T21:57:58.726Z,56.59
2022-09-05T21:59:24.052Z,56.00
2022-09-05T21:59:27.858Z,56.66
2022-09-05T22:01:54.965Z,56.56
2022-09-05T22:04:22.093Z,56.73
2022-09-05T22:06:49.962Z,56.82
2022-09-05T22:09:17.880Z,57.12
2022-09-05T22:11:50.089Z,57.20
2022-09-05T22:14:23.682Z,56.81
2022-09-05T22:16:54.642Z,56.84
2022-09-05T22:19:26.116Z,57.19
2022-09-05T22:22:04.177Z,57.07
2022-09-05T22:24:34.312Z,56.95
2022-09-05T22:27:12.230Z,57.12
2022-09-05T22:29:50.591Z,57.29
2022-09-05T22:32:34.065Z,57.88
2022-09-05T22:35:26.943Z,57.34
2022-09-05T22:37:59.946Z,57.18
2022-09-05T22:40:28.910Z,57.38
2022-09-05T22:42:57.348Z,57.62
2022-09-05T22:45:24.716Z,57.32
2022-09-05T22:47:51.649Z,57.51
2022-09-05T22:50:19.096Z,57.57
2022-09-05T22:52:46.011Z,57.39
2022-09-05T22:55:12.962Z,57.77
2022-09-05T22:57:40.947Z,57.75
2022-09-05T23:00:08.812Z,58.02
2022-09-05T23:02:35.632Z,57.55
2022-09-05T23:05:04.120Z,57.78
2022-09-05T23:07:32.249Z,57.31
2022-09-05T23:09:59.367Z,57.05
2022-09-05T23:12:26.402Z,57.19
2022-09-05T23:14:53.220Z,57.52
2022-09-05T23:17:20.003Z,57.02
2022-09-05T23:19:46.737Z,57.46
2022-09-05T23:22:13.547Z,57.56
2022-09-05T23:24:40.391Z,57.27
2022-09-05T23:27:07.172Z,57.11
2022-09-05T23:29:34.049Z,56.95
2022-09-05T23:32:00.873Z,57.46
2022-09-05T23:34:27.742Z,57.11
2022-09-05T23:36:54.700Z,57.30
2022-09-05T23:39:21.506Z,57.30
2022-09-05T23:41:48.187Z,56.95
2022-09-05T23:44:15.005Z,57.38
2022-09-05T23:46:41.927Z,57.22
2022-09-05T23:49:08.661Z,56.95
2022-09-05T23:51:35.476Z,57.45
2022-09-05T23:54:02.164Z,58.02
2022-09-05T23:56:28.935Z,57.69
2022-09-05T23:58:55.685Z,57.54
